Weather at Boyne City Municipal Airport

Public forecast

Using degrees Fahrenheit for public forecast. Weather courtesy of forecast.io.

Closest aviation weather report (METAR) to Boyne City Municipal Airport

Closest report is Charlevoix Municipal Airport, 13.3 nm (24.7 km) WNW. Retrieved 2021/10/28 10:15 UTC (0 seconds ago):

KCVX 281015Z AUTO 09007KT 10SM OVC016 11/09 A2989 RMK AO2 T01110086

Closest aviation forecast (TAF) to Boyne City Municipal Airport

Closest forecast is Pellston Regional Airport of Emmet County Airport, 23.3 nm (43.1 km) NNE. Retrieved 2021/10/28 06:24 UTC (4 hours ago):

TAF KPLN 280521Z 2806/2906 13006KT P6SM OVC010 FM281400 10005KT P6SM OVC012 FM281600 10009KT P6SM BKN026 FM281800 09010G16KT P6SM BKN220 FM290300 09007KT P6SM BKN150